createdAt,value
2023-02-09T00:00:12.986Z,7.33
2023-02-09T00:02:45.991Z,7.70
2023-02-09T00:05:14.473Z,7.20
2023-02-09T00:07:42.724Z,7.87
2023-02-09T00:10:11.752Z,7.60
2023-02-09T00:12:57.590Z,6.60
2023-02-09T00:15:27.352Z,7.53
2023-02-09T00:17:55.609Z,7.17
2023-02-09T00:20:23.828Z,7.77
2023-02-09T00:22:52.080Z,8.00
2023-02-09T00:25:20.396Z,6.80
2023-02-09T00:27:48.572Z,7.13
2023-02-09T00:30:17.095Z,6.83
2023-02-09T00:32:47.825Z,7.73
2023-02-09T00:35:17.226Z,7.87
2023-02-09T00:37:45.468Z,7.47
2023-02-09T00:40:14.795Z,7.90
2023-02-09T00:42:43.111Z,8.10
2023-02-09T00:45:11.680Z,7.87
2023-02-09T00:47:39.832Z,7.33
2023-02-09T00:50:09.917Z,7.23
2023-02-09T00:52:37.987Z,7.70
2023-02-09T00:55:06.813Z,8.83
2023-02-09T00:57:35.997Z,6.97
2023-02-09T01:00:05.210Z,7.47
2023-02-09T01:02:33.383Z,7.67
2023-02-09T01:05:01.767Z,7.87
2023-02-09T01:07:31.192Z,7.70
2023-02-09T01:10:00.366Z,7.47
2023-02-09T01:12:28.590Z,7.20
2023-02-09T01:14:57.483Z,7.27
2023-02-09T01:17:27.591Z,6.73
2023-02-09T01:19:56.611Z,7.60
2023-02-09T01:22:24.821Z,7.33
2023-02-09T01:24:54.169Z,6.70
2023-02-09T01:27:22.491Z,7.50
2023-02-09T01:29:50.701Z,7.13
2023-02-09T01:32:18.810Z,7.63
2023-02-09T01:34:46.891Z,7.73
2023-02-09T01:37:14.880Z,7.77
2023-02-09T01:39:42.859Z,7.30
2023-02-09T01:42:15.874Z,8.00
2023-02-09T01:45:15.619Z,7.50
2023-02-09T01:47:49.587Z,7.83
2023-02-09T01:50:18.671Z,7.20
2023-02-09T01:52:49.441Z,7.53
2023-02-09T01:55:23.717Z,7.17
2023-02-09T01:57:58.629Z,7.97
2023-02-09T02:00:27.552Z,8.53
2023-02-09T02:03:00.820Z,8.07
2023-02-09T02:05:32.001Z,7.80
2023-02-09T02:08:05.729Z,7.67
2023-02-09T02:10:34.297Z,7.97
2023-02-09T02:13:04.737Z,9.17
2023-02-09T02:15:45.767Z,8.20
2023-02-09T02:18:31.820Z,8.10
2023-02-09T02:21:49.499Z,8.00
2023-02-09T02:24:51.692Z,7.47
2023-02-09T02:27:34.669Z,7.63
2023-02-09T02:30:44.674Z,7.10
2023-02-09T02:33:29.272Z,7.70
2023-02-09T02:36:06.673Z,7.63
2023-02-09T02:38:40.140Z,8.27
2023-02-09T02:41:15.842Z,8.43
2023-02-09T02:43:56.567Z,7.67
2023-02-09T02:46:32.215Z,7.47
2023-02-09T02:49:09.093Z,8.37
2023-02-09T02:54:39.338Z,7.83
2023-02-09T02:57:15.148Z,7.77
2023-02-09T02:59:50.793Z,7.07
2023-02-09T03:02:24.457Z,7.57
2023-02-09T03:04:57.854Z,7.10
2023-02-09T03:07:25.927Z,7.67
2023-02-09T03:09:57.595Z,7.53
2023-02-09T03:12:42.572Z,7.00
2023-02-09T03:15:50.585Z,8.10
2023-02-09T03:18:28.587Z,8.03
2023-02-09T03:21:02.995Z,7.43
2023-02-09T03:23:37.336Z,8.87
2023-02-09T03:26:12.095Z,8.07
2023-02-09T03:28:44.039Z,8.63
2023-02-09T03:31:12.458Z,9.20
2023-02-09T03:33:41.060Z,7.63
2023-02-09T03:36:16.087Z,8.57
2023-02-09T03:38:44.129Z,8.20
2023-02-09T03:41:12.562Z,7.57
2023-02-09T03:43:58.104Z,7.27
2023-02-09T03:46:26.181Z,8.23
2023-02-09T03:48:54.240Z,7.97
2023-02-09T03:51:23.575Z,8.43
2023-02-09T03:53:51.682Z,8.33
2023-02-09T03:56:19.763Z,8.50
2023-02-09T03:58:47.858Z,8.17
2023-02-09T04:01:16.098Z,8.67
2023-02-09T04:03:44.361Z,8.50
2023-02-09T04:06:12.489Z,8.47
2023-02-09T04:08:43.121Z,7.90
2023-02-09T04:11:11.682Z,8.00
2023-02-09T04:13:39.825Z,8.50
2023-02-09T04:16:08.304Z,8.60
2023-02-09T04:18:36.382Z,8.50
2023-02-09T04:21:04.812Z,7.97
2023-02-09T04:23:32.882Z,8.47
2023-02-09T04:26:02.309Z,8.50
2023-02-09T04:28:30.345Z,8.53
2023-02-09T04:30:58.784Z,9.37
2023-02-09T04:33:26.976Z,8.30
2023-02-09T04:35:55.029Z,8.70
2023-02-09T04:38:23.953Z,9.63
2023-02-09T04:40:54.749Z,8.87
2023-02-09T04:43:24.484Z,9.13
2023-02-09T04:45:52.859Z,8.80
2023-02-09T04:48:23.646Z,7.90
2023-02-09T04:50:52.136Z,8.93
2023-02-09T04:53:20.656Z,9.13
2023-02-09T04:55:51.438Z,9.80
2023-02-09T04:58:38.873Z,8.77
2023-02-09T05:01:08.957Z,9.03
2023-02-09T05:03:37.184Z,8.73
2023-02-09T05:06:06.850Z,9.03
2023-02-09T05:08:34.950Z,8.47
2023-02-09T05:11:03.342Z,8.60
2023-02-09T05:13:31.406Z,8.53
2023-02-09T05:15:59.741Z,9.47
2023-02-09T05:18:30.179Z,9.87
2023-02-09T05:20:58.336Z,8.57
2023-02-09T05:23:26.434Z,8.93
2023-02-09T05:25:54.996Z,8.83
2023-02-09T05:28:23.688Z,7.97
2023-02-09T05:30:53.779Z,9.83
2023-02-09T05:33:22.811Z,8.47
2023-02-09T05:35:55.669Z,9.93
2023-02-09T05:38:24.268Z,9.73
2023-02-09T05:40:52.428Z,9.00
2023-02-09T05:43:20.510Z,9.37
2023-02-09T05:45:48.639Z,9.17
2023-02-09T05:48:16.707Z,9.03
2023-02-09T05:50:45.025Z,8.70
2023-02-09T05:53:17.264Z,9.30
2023-02-09T05:55:45.503Z,9.30
2023-02-09T05:58:13.875Z,11.10
2023-02-09T06:00:41.896Z,13.83
2023-02-09T06:03:10.016Z,11.50
2023-02-09T06:05:38.062Z,10.87
2023-02-09T06:08:06.377Z,10.47
2023-02-09T06:10:35.778Z,9.33
2023-02-09T06:13:03.892Z,8.93
2023-02-09T06:15:31.973Z,9.30
2023-02-09T06:18:00.111Z,9.60
2023-02-09T06:20:28.322Z,10.30
2023-02-09T06:22:56.607Z,10.50
2023-02-09T06:25:24.804Z,10.37
2023-02-09T06:27:54.254Z,10.00
2023-02-09T06:30:22.687Z,10.20
2023-02-09T06:32:50.732Z,9.13
2023-02-09T06:35:19.132Z,10.07
2023-02-09T06:37:47.190Z,10.43
2023-02-09T06:40:15.201Z,9.07
2023-02-09T06:42:46.029Z,10.07
2023-02-09T06:45:18.170Z,10.80
2023-02-09T06:47:47.407Z,10.67
2023-02-09T06:50:18.086Z,10.43
2023-02-09T06:53:12.389Z,10.23
2023-02-09T06:55:40.501Z,9.90
2023-02-09T06:58:08.521Z,10.83
2023-02-09T07:00:37.892Z,10.07
2023-02-09T07:03:31.355Z,11.40
2023-02-09T07:06:05.651Z,10.80
2023-02-09T07:08:33.752Z,10.83
2023-02-09T07:11:05.553Z,10.53
2023-02-09T07:13:34.613Z,10.47
2023-02-09T07:16:07.963Z,10.23
2023-02-09T07:18:37.127Z,12.00
2023-02-09T07:21:08.573Z,11.30
2023-02-09T07:23:37.246Z,9.80
2023-02-09T07:26:09.128Z,9.47
2023-02-09T07:28:38.166Z,10.23
2023-02-09T07:31:10.544Z,10.23
2023-02-09T07:33:38.814Z,11.43
2023-02-09T07:36:09.244Z,11.43
2023-02-09T07:38:38.457Z,11.43
2023-02-09T07:41:08.803Z,10.87
2023-02-09T07:43:36.864Z,10.47
2023-02-09T07:46:08.326Z,11.80
2023-02-09T07:48:37.649Z,10.57
2023-02-09T07:51:07.059Z,12.37
2023-02-09T07:53:35.189Z,10.73
2023-02-09T07:56:05.664Z,11.10
2023-02-09T07:58:33.755Z,9.83
2023-02-09T08:01:08.247Z,11.07
2023-02-09T08:03:37.362Z,10.50
2023-02-09T08:06:12.840Z,10.93
2023-02-09T08:08:40.894Z,10.93
2023-02-09T08:11:09.024Z,10.67
2023-02-09T08:13:40.973Z,11.10
2023-02-09T08:16:15.740Z,12.27
2023-02-09T08:18:48.961Z,11.37
2023-02-09T08:21:18.573Z,10.90
2023-02-09T08:23:52.390Z,11.80
2023-02-09T08:26:20.806Z,11.57
2023-02-09T08:28:49.232Z,11.37
2023-02-09T08:31:21.782Z,10.53
2023-02-09T08:33:51.610Z,11.60
2023-02-09T08:36:21.465Z,11.93
2023-02-09T08:38:49.850Z,10.30
2023-02-09T08:41:20.063Z,11.20
2023-02-09T08:43:51.794Z,12.20
2023-02-09T08:46:21.520Z,12.35
2023-02-09T08:48:49.601Z,10.80
2023-02-09T08:51:17.950Z,12.30
2023-02-09T08:53:52.201Z,12.67
2023-02-09T08:56:21.943Z,11.43
2023-02-09T08:58:50.870Z,11.40
2023-02-09T09:01:20.544Z,11.80
2023-02-09T09:03:49.453Z,11.20
2023-02-09T09:06:17.704Z,11.83
2023-02-09T09:08:45.940Z,11.73
2023-02-09T09:11:14.907Z,12.47
2023-02-09T09:13:43.368Z,11.50
2023-02-09T09:16:17.113Z,12.37
2023-02-09T09:18:46.714Z,11.23
2023-02-09T09:21:15.951Z,10.63
2023-02-09T09:23:44.202Z,11.60
2023-02-09T09:26:12.919Z,11.30
2023-02-09T09:28:40.947Z,11.87
2023-02-09T09:31:10.286Z,10.93
2023-02-09T09:33:38.853Z,11.13
2023-02-09T09:36:09.751Z,11.40
2023-02-09T09:38:39.635Z,13.07
2023-02-09T09:41:25.334Z,15.63
2023-02-09T09:43:55.790Z,11.97
2023-02-09T09:46:34.289Z,11.13
2023-02-09T09:49:04.113Z,10.80
2023-02-09T09:51:41.580Z,11.27
2023-02-09T09:54:18.356Z,11.53
2023-02-09T09:56:46.504Z,11.70
2023-02-09T09:59:18.915Z,11.10
2023-02-09T10:01:48.419Z,11.87
2023-02-09T10:04:17.912Z,11.67
2023-02-09T10:06:51.229Z,11.93
2023-02-09T10:09:33.262Z,11.03
2023-02-09T10:12:17.472Z,11.47
2023-02-09T10:14:45.684Z,11.97
2023-02-09T10:17:13.799Z,11.30
2023-02-09T10:19:41.926Z,12.00
2023-02-09T10:22:14.131Z,11.70
2023-02-09T10:24:42.313Z,11.07
2023-02-09T10:27:16.262Z,10.70
2023-02-09T10:29:44.297Z,10.90
2023-02-09T10:32:19.601Z,9.97
2023-02-09T10:34:51.410Z,10.50
2023-02-09T10:37:27.821Z,10.30
2023-02-09T10:40:07.297Z,10.60
2023-02-09T10:42:38.284Z,10.17
2023-02-09T10:45:15.414Z,9.87
2023-02-09T10:47:43.551Z,11.33
2023-02-09T10:50:19.472Z,10.70
2023-02-09T10:53:01.384Z,10.77
2023-02-09T10:55:37.217Z,9.70
2023-02-09T10:58:22.401Z,9.93
2023-02-09T11:00:59.020Z,10.30
2023-02-09T11:03:27.363Z,10.23
2023-02-09T11:06:14.896Z,9.90
2023-02-09T11:08:49.217Z,11.07
2023-02-09T11:11:32.318Z,11.20
2023-02-09T11:14:01.148Z,10.23
2023-02-09T11:16:50.666Z,10.90
2023-02-09T11:19:44.994Z,10.40
2023-02-09T11:22:18.175Z,10.93
2023-02-09T11:25:01.547Z,10.07
2023-02-09T11:28:02.497Z,10.27
2023-02-09T11:31:02.135Z,9.90
2023-02-09T11:33:44.117Z,9.63
2023-02-09T11:36:29.744Z,9.07
2023-02-09T11:39:01.669Z,10.33
2023-02-09T11:41:56.349Z,9.60
2023-02-09T11:44:31.204Z,8.87
2023-02-09T11:47:06.308Z,10.00
2023-02-09T11:49:45.272Z,9.40
2023-02-09T11:52:19.460Z,10.17
2023-02-09T11:54:53.075Z,9.50
2023-02-09T11:57:37.132Z,9.43
2023-02-09T12:00:08.263Z,9.23
2023-02-09T12:02:53.547Z,10.10
2023-02-09T12:05:23.553Z,8.53
2023-02-09T12:08:26.358Z,9.67
2023-02-09T12:11:11.692Z,9.70
2023-02-09T12:14:08.187Z,9.57
2023-02-09T12:16:42.268Z,10.53
2023-02-09T12:19:31.081Z,9.27
2023-02-09T12:21:59.281Z,10.40
2023-02-09T12:24:40.135Z,9.67
2023-02-09T12:27:26.965Z,9.80
2023-02-09T12:29:56.596Z,9.07
2023-02-09T12:32:45.600Z,9.93
2023-02-09T12:35:29.848Z,8.90
2023-02-09T12:38:16.163Z,10.07
2023-02-09T12:40:44.444Z,9.43
2023-02-09T12:43:30.003Z,9.93
2023-02-09T12:46:24.369Z,10.00
2023-02-09T12:49:19.953Z,10.33
2023-02-09T12:52:20.841Z,8.90
2023-02-09T12:54:52.662Z,8.80
2023-02-09T12:57:55.049Z,9.63
2023-02-09T13:00:54.918Z,9.53
2023-02-09T13:03:26.321Z,9.97
2023-02-09T13:06:00.654Z,10.23
2023-02-09T13:08:39.835Z,8.97
2023-02-09T13:11:24.089Z,9.70
2023-02-09T13:13:56.836Z,9.70
2023-02-09T13:16:51.298Z,9.47
2023-02-09T13:19:48.071Z,8.93
2023-02-09T13:22:51.114Z,9.60
2023-02-09T13:25:30.954Z,9.57
2023-02-09T13:28:10.796Z,9.43
2023-02-09T13:30:38.901Z,10.23
2023-02-09T13:33:23.694Z,10.37
2023-02-09T13:36:13.506Z,11.30
2023-02-09T13:38:44.864Z,11.13
2023-02-09T13:41:27.996Z,10.87
2023-02-09T13:43:56.271Z,10.17
2023-02-09T13:46:27.452Z,10.87
2023-02-09T13:48:56.368Z,10.97
2023-02-09T13:51:25.893Z,10.63
2023-02-09T13:53:58.878Z,10.57
2023-02-09T13:56:27.909Z,10.60
2023-02-09T13:58:57.156Z,11.43
2023-02-09T14:01:30.842Z,11.13
2023-02-09T14:04:06.454Z,11.13
2023-02-09T14:06:41.350Z,10.63
2023-02-09T14:09:14.706Z,11.27
2023-02-09T14:11:49.217Z,9.87
2023-02-09T14:14:23.228Z,10.20
2023-02-09T14:17:24.494Z,10.17
2023-02-09T14:19:54.441Z,18.90
2023-02-09T14:22:33.733Z,18.27
2023-02-09T14:25:06.467Z,11.27
2023-02-09T14:27:36.376Z,11.20
2023-02-09T14:30:04.916Z,11.87
2023-02-09T14:32:36.136Z,11.40
2023-02-09T14:35:20.826Z,11.20
2023-02-09T14:37:52.866Z,12.00
2023-02-09T14:40:32.029Z,10.83
2023-02-09T14:43:03.635Z,10.03
2023-02-09T14:45:44.579Z,9.93
2023-02-09T14:48:21.520Z,10.43
2023-02-09T14:50:51.431Z,9.90
2023-02-09T14:53:22.912Z,9.40
2023-02-09T14:55:51.107Z,9.97
2023-02-09T14:58:24.366Z,12.50
2023-02-09T15:00:55.193Z,11.23
2023-02-09T15:03:23.987Z,10.90
2023-02-09T15:05:57.698Z,11.60
2023-02-09T15:08:29.362Z,10.23
2023-02-09T15:11:01.096Z,11.53
2023-02-09T15:13:32.627Z,10.10
2023-02-09T15:16:00.696Z,10.57
2023-02-09T15:18:29.018Z,10.20
2023-02-09T15:20:58.991Z,10.33
2023-02-09T15:23:28.415Z,10.80
2023-02-09T15:25:56.432Z,11.37
2023-02-09T15:28:29.927Z,10.37
2023-02-09T15:30:59.647Z,11.20
2023-02-09T15:33:29.943Z,9.90
2023-02-09T15:35:59.895Z,9.50
2023-02-09T15:38:29.459Z,9.07
2023-02-09T15:41:23.844Z,10.40
2023-02-09T15:44:09.651Z,10.27
2023-02-09T15:46:55.232Z,10.63
2023-02-09T15:49:23.594Z,10.47
2023-02-09T15:51:51.871Z,10.50
2023-02-09T15:54:27.184Z,10.20
2023-02-09T15:56:55.342Z,9.77
2023-02-09T15:59:24.602Z,11.47
2023-02-09T16:01:52.774Z,11.13
2023-02-09T16:04:20.891Z,10.50
2023-02-09T16:06:52.700Z,10.70
2023-02-09T16:09:26.643Z,10.77
2023-02-09T16:11:55.088Z,10.03
2023-02-09T16:14:25.977Z,9.73
2023-02-09T16:16:54.211Z,11.07
2023-02-09T16:19:22.522Z,9.93
2023-02-09T16:21:56.382Z,10.37
2023-02-09T16:24:32.416Z,10.40
2023-02-09T16:27:01.554Z,11.30
2023-02-09T16:29:29.788Z,10.70
2023-02-09T16:31:57.912Z,10.30
2023-02-09T16:34:25.977Z,10.27
2023-02-09T16:36:54.030Z,10.20
2023-02-09T16:39:23.622Z,10.03
2023-02-09T16:41:53.563Z,9.87
2023-02-09T16:44:24.944Z,11.27
2023-02-09T16:46:56.382Z,10.43
2023-02-09T16:49:37.751Z,10.67
2023-02-09T16:52:16.005Z,11.73
2023-02-09T16:54:50.273Z,10.90
2023-02-09T16:57:23.411Z,11.10
2023-02-09T16:59:52.269Z,11.00
2023-02-09T17:02:39.412Z,10.97
2023-02-09T17:05:18.638Z,11.27
2023-02-09T17:07:54.886Z,10.57
2023-02-09T17:10:27.272Z,10.83
2023-02-09T17:12:56.768Z,9.43
2023-02-09T17:15:31.172Z,9.60
2023-02-09T17:18:04.548Z,8.27
2023-02-09T17:20:39.056Z,8.20
2023-02-09T17:23:08.414Z,8.70
2023-02-09T17:25:37.210Z,9.07
2023-02-09T17:28:06.647Z,9.13
2023-02-09T17:30:35.697Z,9.60
2023-02-09T17:33:07.426Z,11.83
2023-02-09T17:36:10.160Z,11.13
2023-02-09T17:38:30.811Z,10.87
2023-02-09T17:41:01.670Z,9.20
2023-02-09T17:43:31.392Z,8.70
2023-02-09T17:46:00.615Z,9.43
2023-02-09T17:48:29.782Z,9.33
2023-02-09T17:51:00.300Z,8.93
2023-02-09T17:53:33.721Z,8.57
2023-02-09T17:58:57.350Z,8.97
2023-02-09T18:01:28.731Z,9.27
2023-02-09T18:03:59.539Z,8.63
2023-02-09T18:06:35.156Z,10.80
2023-02-09T18:09:06.091Z,12.27
2023-02-09T18:11:57.226Z,15.70
2023-02-09T18:14:28.700Z,28.03
2023-02-09T18:16:57.087Z,70.90
2023-02-09T18:19:26.171Z,46.37
2023-02-09T18:21:57.227Z,36.50
2023-02-09T18:24:28.685Z,18.23
2023-02-09T18:26:57.209Z,13.03
2023-02-09T18:29:29.486Z,10.90
2023-02-09T18:31:58.324Z,11.47
2023-02-09T18:34:27.507Z,12.07
2023-02-09T18:36:55.653Z,14.63
2023-02-09T18:39:24.042Z,13.50
2023-02-09T18:41:54.320Z,13.27
2023-02-09T18:44:26.786Z,11.80
2023-02-09T18:46:56.506Z,13.00
2023-02-09T18:49:24.587Z,10.97
2023-02-09T18:51:53.146Z,10.30
2023-02-09T18:54:21.550Z,9.57
2023-02-09T18:56:52.761Z,9.63
2023-02-09T18:59:21.060Z,10.07
2023-02-09T19:01:50.467Z,14.60
2023-02-09T19:04:20.306Z,12.47
2023-02-09T19:06:48.293Z,13.47
2023-02-09T19:09:16.409Z,25.50
2023-02-09T19:11:44.926Z,35.43
2023-02-09T19:14:30.700Z,51.87
2023-02-09T19:16:58.871Z,58.93
2023-02-09T19:19:28.644Z,56.67
2023-02-09T19:21:57.877Z,33.03
2023-02-09T19:24:26.459Z,39.57
2023-02-09T19:26:57.678Z,52.53
2023-02-09T19:29:25.849Z,46.13
2023-02-09T19:31:56.042Z,32.97
2023-02-09T19:34:24.586Z,28.20
2023-02-09T19:36:54.085Z,18.27
2023-02-09T19:39:22.103Z,17.77
2023-02-09T19:41:50.190Z,14.90
2023-02-09T19:44:18.451Z,14.37
2023-02-09T19:46:46.521Z,13.90
2023-02-09T19:49:14.704Z,15.07
2023-02-09T19:51:43.071Z,15.10
2023-02-09T19:54:12.466Z,16.13
2023-02-09T19:56:41.668Z,16.03
2023-02-09T19:59:10.341Z,14.57
2023-02-09T20:01:39.777Z,12.63
2023-02-09T20:04:08.246Z,12.77
2023-02-09T20:06:36.613Z,11.80
2023-02-09T20:09:05.505Z,11.40
2023-02-09T20:11:35.150Z,11.20
2023-02-09T20:14:05.337Z,11.80
2023-02-09T20:16:33.810Z,11.30
2023-02-09T20:19:02.103Z,11.23
2023-02-09T20:21:30.306Z,11.93
2023-02-09T20:23:58.993Z,11.50
2023-02-09T20:26:32.886Z,11.10
2023-02-09T20:29:05.642Z,11.37
2023-02-09T20:31:38.304Z,10.97
2023-02-09T20:34:09.785Z,10.23
2023-02-09T20:36:40.391Z,12.40
2023-02-09T20:39:13.415Z,11.80
2023-02-09T20:42:02.231Z,11.60
2023-02-09T20:44:49.040Z,11.00
2023-02-09T20:47:17.396Z,11.47
2023-02-09T20:49:45.973Z,10.33
2023-02-09T20:52:14.155Z,10.83
2023-02-09T20:54:42.217Z,10.80
2023-02-09T20:57:10.700Z,11.70
2023-02-09T20:59:40.401Z,10.73
2023-02-09T21:02:08.806Z,12.87
2023-02-09T21:04:36.839Z,11.83
2023-02-09T21:07:05.071Z,14.33
2023-02-09T21:09:34.304Z,31.57
2023-02-09T21:12:02.373Z,28.10
2023-02-09T21:14:41.784Z,24.20
2023-02-09T21:17:12.631Z,27.77
2023-02-09T21:19:40.807Z,19.90
2023-02-09T21:22:09.447Z,16.80
2023-02-09T21:24:38.791Z,17.97
2023-02-09T21:27:07.261Z,13.13
2023-02-09T21:29:36.224Z,13.17
2023-02-09T21:32:07.278Z,11.63
2023-02-09T21:34:36.836Z,11.97
2023-02-09T21:37:07.843Z,11.43
2023-02-09T21:39:35.973Z,11.63
2023-02-09T21:42:21.504Z,11.73
2023-02-09T21:44:49.656Z,12.13
2023-02-09T21:47:18.949Z,12.13
2023-02-09T21:49:49.471Z,12.87
2023-02-09T21:52:17.534Z,11.57
2023-02-09T21:54:45.670Z,10.67
2023-02-09T21:57:13.720Z,11.83
2023-02-09T21:59:44.372Z,12.60
2023-02-09T22:02:16.059Z,13.97
2023-02-09T22:04:45.624Z,13.53
2023-02-09T22:07:15.779Z,11.43
2023-02-09T22:09:43.868Z,10.97
2023-02-09T22:12:11.984Z,10.63
2023-02-09T22:14:40.082Z,9.83
2023-02-09T22:17:08.067Z,9.50
2023-02-09T22:19:36.588Z,8.97
2023-02-09T22:22:05.172Z,9.80
2023-02-09T22:24:34.875Z,8.80
2023-02-09T22:27:04.906Z,8.83
2023-02-09T22:29:34.467Z,9.57
2023-02-09T22:32:03.084Z,11.23
2023-02-09T22:34:31.184Z,10.23
2023-02-09T22:36:59.205Z,10.87
2023-02-09T22:39:27.291Z,10.13
2023-02-09T22:41:59.291Z,9.97
2023-02-09T22:44:30.092Z,11.70
2023-02-09T22:46:58.640Z,10.47
2023-02-09T22:49:26.687Z,10.17
2023-02-09T22:51:54.814Z,10.77
2023-02-09T22:54:22.899Z,10.00
2023-02-09T22:56:51.159Z,10.77
2023-02-09T22:59:20.697Z,10.63
2023-02-09T23:01:49.118Z,10.77
2023-02-09T23:04:17.205Z,10.83
2023-02-09T23:06:45.631Z,11.40
2023-02-09T23:09:15.088Z,10.43
2023-02-09T23:11:44.290Z,11.07
2023-02-09T23:14:13.645Z,10.30
2023-02-09T23:16:44.998Z,9.80
2023-02-09T23:19:16.509Z,11.27
2023-02-09T23:21:48.040Z,11.17
2023-02-09T23:24:18.956Z,10.93
2023-02-09T23:26:47.103Z,9.53
2023-02-09T23:29:17.113Z,10.50
2023-02-09T23:31:48.030Z,9.67
2023-02-09T23:34:19.203Z,10.73
2023-02-09T23:36:47.259Z,11.40
2023-02-09T23:39:18.094Z,9.87
2023-02-09T23:41:46.253Z,10.20
2023-02-09T23:44:14.414Z,10.27
2023-02-09T23:46:42.540Z,10.10
2023-02-09T23:49:12.619Z,10.23
2023-02-09T23:51:40.669Z,10.70
2023-02-09T23:54:09.254Z,9.57
2023-02-09T23:56:37.795Z,10.00
2023-02-09T23:59:09.286Z,10.10
